Time;durP1;ratioP1;P1;durP2;ratioP2;P2;SDS_P1;SDS_P2;PMS_P1;PMS_P2;Temp;Humidity;BMP_temperature;BMP_pressure;BME280_temperature;BME280_humidity;BME280_pressure;Samples;Min_cycle;Max_cycle;Signal;HPM_P1;HPM_P2
2022/07/17 00:02:19;;;;;;;0.22;0.22;;;;;;;13.28;75.65;100827.22;5043516;28;20025;-69
2022/07/17 00:04:44;;;;;;;0.30;0.30;;;;;;;13.23;76.61;100827.28;5043391;28;20457;-69
2022/07/17 00:07:09;;;;;;;0.20;0.20;;;;;;;13.17;77.09;100834.31;5043297;28;20468;-69
2022/07/17 00:09:35;;;;;;;0.20;0.20;;;;;;;13.16;77.78;100824.78;5043314;28;20025;-70
2022/07/17 00:12:00;;;;;;;0.35;0.35;;;;;;;13.17;78.23;100831.72;5043187;28;20030;-70
2022/07/17 00:14:26;;;;;;;0.30;0.30;;;;;;;13.19;78.60;100827.34;5043255;28;20041;-70
2022/07/17 00:16:53;;;;;;;0.40;0.40;;;;;;;13.11;78.90;100820.50;5043138;28;20064;-70
2022/07/17 00:19:20;;;;;;;0.30;0.30;;;;;;;13.18;79.61;100826.47;5043331;28;20073;-70
2022/07/17 00:21:46;;;;;;;0.30;0.30;;;;;;;13.17;80.43;100823.91;5043486;28;20021;-69
2022/07/17 00:24:12;;;;;;;2.75;1.85;;;;;;;13.18;81.14;100829.09;5043378;28;20079;-69
2022/07/17 00:26:38;;;;;;;0.30;0.30;;;;;;;13.21;80.85;100825.59;5042907;28;20120;-69
2022/07/17 00:29:04;;;;;;;0.30;0.30;;;;;;;13.23;81.01;100824.69;5043051;28;20045;-69
2022/07/17 00:31:30;;;;;;;0.25;0.25;;;;;;;13.22;81.37;100812.53;5043263;28;20029;-69
2022/07/17 00:33:56;;;;;;;0.20;0.20;;;;;;;13.24;81.70;100813.38;5043162;28;20503;-69
2022/07/17 00:36:21;;;;;;;0.30;0.30;;;;;;;13.27;81.57;100817.69;5043204;28;20081;-70
2022/07/17 00:38:46;;;;;;;0.30;0.30;;;;;;;13.24;81.92;100805.53;5043158;28;20032;-70
2022/07/17 00:41:14;;;;;;;0.30;0.30;;;;;;;13.31;82.09;100816.75;5042703;28;20057;-70
2022/07/17 00:43:39;;;;;;;0.30;0.30;;;;;;;13.29;82.41;100813.31;5043127;28;20025;-70
2022/07/17 00:46:05;;;;;;;0.30;0.30;;;;;;;13.30;82.71;100816.78;5042869;28;20052;-70
2022/07/17 00:48:32;;;;;;;0.30;0.30;;;;;;;13.29;83.20;100805.47;5043036;28;20070;-70
2022/07/17 00:50:57;;;;;;;0.20;0.20;;;;;;;13.30;83.42;100815.06;5042863;28;20052;-69
2022/07/17 00:53:23;;;;;;;0.20;0.20;;;;;;;13.31;83.39;100813.28;5025071;28;20022;-69
2022/07/17 00:55:49;;;;;;;0.30;0.30;;;;;;;13.33;84.03;100825.44;5042881;28;20017;-69
2022/07/17 00:58:22;;;;;;;0.20;0.20;;;;;;;13.31;84.30;100816.75;5043110;28;20071;-70
2022/07/17 01:00:49;;;;;;;0.20;0.20;;;;;;;13.33;84.46;100820.22;5043824;28;20026;-70
2022/07/17 01:03:15;;;;;;;0.30;0.30;;;;;;;13.33;84.39;100807.19;5046397;28;20071;-69
2022/07/17 01:05:41;;;;;;;0.20;0.20;;;;;;;13.35;84.34;100813.25;5046359;28;20025;-69
2022/07/17 01:08:06;;;;;;;0.93;0.88;;;;;;;13.40;84.63;100807.97;5046475;28;20034;-70
2022/07/17 01:10:32;;;;;;;0.20;0.20;;;;;;;13.42;85.29;100813.16;5046397;28;20025;-69
2022/07/17 01:12:57;;;;;;;1.23;1.23;;;;;;;13.45;85.32;100802.69;5046312;28;20025;-69
2022/07/17 01:15:23;;;;;;;0.25;0.25;;;;;;;13.47;85.18;100804.38;5046411;28;20381;-69
2022/07/17 01:17:49;;;;;;;3.92;2.05;;;;;;;13.50;85.13;100809.59;5046362;28;20029;-69
2022/07/17 01:20:14;;;;;;;0.50;0.50;;;;;;;13.44;85.19;100790.50;5046182;28;20048;-68
2022/07/17 01:22:49;;;;;;;0.30;0.30;;;;;;;13.51;85.45;100806.09;5046268;28;20021;-68
2022/07/17 01:25:16;;;;;;;0.30;0.30;;;;;;;13.49;85.55;100802.63;5046150;28;20025;-68
2022/07/17 01:27:42;;;;;;;0.30;0.30;;;;;;;13.53;85.54;100807.81;5046204;28;20033;-68
2022/07/17 01:30:08;;;;;;;0.30;0.30;;;;;;;13.55;85.91;100803.44;5046030;28;20029;-68
2022/07/17 01:32:35;;;;;;;0.20;0.20;;;;;;;13.55;86.00;100795.59;5045859;28;20033;-68
2022/07/17 01:35:01;;;;;;;0.20;0.20;;;;;;;13.60;85.86;100801.63;5045875;28;20057;-69
2022/07/17 01:37:27;;;;;;;0.20;0.20;;;;;;;13.60;86.05;100791.19;5045727;28;20030;-68
2022/07/17 01:39:53;;;;;;;0.30;0.30;;;;;;;13.61;86.20;100798.16;5045291;28;20069;-68
2022/07/17 01:42:19;;;;;;;0.20;0.20;;;;;;;13.61;86.36;100787.72;5045755;28;20163;-68
2022/07/17 01:44:44;;;;;;;0.30;0.30;;;;;;;13.57;86.47;100784.28;5045675;28;20381;-70
2022/07/17 01:47:12;;;;;;;0.30;0.30;;;;;;;13.63;86.40;100789.41;5045614;28;20060;-69
2022/07/17 01:49:37;;;;;;;0.30;0.30;;;;;;;13.65;86.22;100786.78;5045679;28;20026;-70
2022/07/17 01:52:03;;;;;;;0.30;0.30;;;;;;;13.65;85.95;100788.50;5027655;28;20064;-69
2022/07/17 01:54:33;;;;;;;0.30;0.30;;;;;;;13.67;86.16;100781.53;5045817;28;20028;-69
2022/07/17 01:56:58;;;;;;;0.20;0.20;;;;;;;13.68;86.15;100780.63;5045609;28;20373;-69
2022/07/17 01:59:23;;;;;;;0.30;0.30;;;;;;;13.69;86.10;100782.38;5027643;28;20365;-69
2022/07/17 02:01:49;;;;;;;0.45;0.45;;;;;;;13.71;86.18;100781.47;5045431;28;20079;-69
2022/07/17 02:04:14;;;;;;;0.30;0.30;;;;;;;13.77;86.19;100777.03;5045317;28;20056;-69
2022/07/17 02:06:39;;;;;;;0.30;0.30;;;;;;;13.84;85.94;100773.44;5027401;28;20025;-69
2022/07/17 02:09:05;;;;;;;0.30;0.30;;;;;;;13.90;85.28;100772.47;5045261;28;20084;-69
2022/07/17 02:11:30;;;;;;;0.30;0.30;;;;;;;13.93;84.82;100783.72;5044741;28;20018;-69
2022/07/17 02:13:55;;;;;;;3.13;2.35;;;;;;;13.93;85.14;100785.47;5045121;28;20017;-69
2022/07/17 02:16:21;;;;;;;0.30;0.30;;;;;;;13.95;85.60;100786.28;5045287;28;20032;-69
2022/07/17 02:18:46;;;;;;;0.20;0.20;;;;;;;14.04;85.24;100790.53;5045078;28;20018;-69
2022/07/17 02:21:11;;;;;;;0.30;0.30;;;;;;;14.11;85.00;100793.00;5045055;28;20420;-69
2022/07/17 02:23:37;;;;;;;0.25;0.25;;;;;;;14.17;84.90;100791.19;5044995;28;20457;-69
2022/07/17 02:26:02;;;;;;;0.30;0.30;;;;;;;14.22;84.54;100794.53;5045079;28;20035;-69
2022/07/17 02:28:28;;;;;;;0.20;0.20;;;;;;;14.22;84.84;100789.31;5044990;28;20089;-69
2022/07/17 02:30:53;;;;;;;1.40;1.40;;;;;;;14.24;84.68;100790.16;5044743;28;20085;-69
2022/07/17 02:33:19;;;;;;;0.50;0.50;;;;;;;14.31;84.06;100793.53;5044639;28;20041;-69
2022/07/17 02:35:44;;;;;;;0.20;0.20;;;;;;;14.35;84.38;100788.22;5044755;28;20025;-69
2022/07/17 02:38:09;;;;;;;0.20;0.20;;;;;;;14.38;84.32;100793.41;5044790;28;20021;-69
2022/07/17 02:40:35;;;;;;;0.30;0.30;;;;;;;14.45;83.78;100798.50;5044488;28;20038;-69
2022/07/17 02:43:01;;;;;;;0.28;0.28;;;;;;;14.47;83.37;100792.34;5026886;28;20048;-69
2022/07/17 02:45:26;;;;;;;0.70;0.70;;;;;;;14.43;83.07;100790.69;5044696;28;20017;-69
2022/07/17 02:47:53;;;;;;;0.30;0.30;;;;;;;14.40;82.69;100798.59;5044668;28;20021;-69
2022/07/17 02:50:19;;;;;;;0.30;0.30;;;;;;;14.30;82.37;100792.66;5044542;28;20151;-69
2022/07/17 02:52:44;;;;;;;0.20;0.20;;;;;;;14.21;82.55;100792.84;5044661;28;20025;-69
2022/07/17 02:55:10;;;;;;;0.20;0.20;;;;;;;14.15;82.42;100804.25;5044370;28;20025;-68
2022/07/17 02:57:39;;;;;;;0.20;0.20;;;;;;;14.08;82.54;100803.50;5044445;28;20029;-69
2022/07/17 03:00:07;;;;;;;0.30;0.30;;;;;;;14.06;82.91;100805.25;5044505;28;20025;-70
2022/07/17 03:02:32;;;;;;;0.20;0.20;;;;;;;14.08;83.33;100803.50;5026365;28;20509;-70
2022/07/17 03:04:58;;;;;;;4.05;2.20;;;;;;;14.13;83.93;100804.28;5044238;28;20028;-71
2022/07/17 03:07:23;;;;;;;0.20;0.20;;;;;;;14.21;84.41;100800.66;5044221;28;20120;-70
2022/07/17 03:09:48;;;;;;;0.63;0.63;;;;;;;14.30;84.83;100805.72;5044128;28;20028;-69
2022/07/17 03:12:14;;;;;;;0.20;0.20;;;;;;;14.44;84.81;100810.69;5044110;28;20025;-69
2022/07/17 03:14:39;;;;;;;0.20;0.20;;;;;;;14.58;84.71;100807.84;5044232;28;20029;-70
2022/07/17 03:17:05;;;;;;;2.50;2.38;;;;;;;14.74;85.07;100799.72;5044154;28;20032;-70
2022/07/17 03:19:30;;;;;;;0.20;0.20;;;;;;;15.02;85.51;100804.41;5044136;28;20033;-70
2022/07/17 03:21:56;;;;;;;0.20;0.20;;;;;;;15.38;84.99;100792.34;5044021;28;20048;-70
2022/07/17 03:24:21;;;;;;;0.28;0.28;;;;;;;15.70;84.57;100793.34;5025422;28;20068;-69
2022/07/17 03:26:46;;;;;;;0.20;0.20;;;;;;;15.95;83.34;100793.63;5043730;28;20036;-69
2022/07/17 03:29:12;;;;;;;0.25;0.25;;;;;;;16.15;82.50;100794.88;5043718;28;20033;-70
2022/07/17 03:31:38;;;;;;;0.22;0.22;;;;;;;16.33;81.79;100796.19;5043708;28;20040;-70
2022/07/17 03:34:03;;;;;;;0.20;0.20;;;;;;;16.38;81.37;100790.81;5043706;28;20025;-70
2022/07/17 03:36:29;;;;;;;0.35;0.35;;;;;;;16.42;80.93;100797.69;5043831;28;20053;-70
2022/07/17 03:38:54;;;;;;;0.52;0.52;;;;;;;16.47;80.89;100794.94;5043607;28;20040;-69
2022/07/17 03:41:19;;;;;;;0.20;0.20;;;;;;;16.54;80.57;100801.75;5043423;28;20049;-69
2022/07/17 03:43:45;;;;;;;0.20;0.20;;;;;;;16.52;80.16;100800.91;5043577;28;20029;-68
2022/07/17 03:46:10;;;;;;;0.20;0.20;;;;;;;16.46;79.65;100795.84;5043491;28;20085;-69
2022/07/17 03:48:37;;;;;;;0.20;0.20;;;;;;;16.43;79.56;100806.41;5043776;28;20021;-68
2022/07/17 03:51:02;;;;;;;0.20;0.20;;;;;;;16.40;79.09;100803.88;5043525;28;20025;-69
2022/07/17 03:53:27;;;;;;;0.20;0.20;;;;;;;16.33;79.17;100801.41;5043819;28;20064;-69
2022/07/17 03:55:53;;;;;;;0.20;0.20;;;;;;;16.32;79.24;100807.56;5043377;28;20065;-69
2022/07/17 03:58:18;;;;;;;0.20;0.20;;;;;;;16.36;78.66;100808.31;5043334;28;20535;-69
2022/07/17 04:00:44;;;;;;;0.20;0.20;;;;;;;16.35;78.47;100811.84;5043348;28;20021;-69
2022/07/17 04:03:09;;;;;;;0.22;0.22;;;;;;;16.31;78.78;100811.06;5043301;28;20056;-70
2022/07/17 04:05:34;;;;;;;0.20;0.20;;;;;;;16.34;78.61;100818.00;5025404;28;20060;-68
2022/07/17 04:08:00;;;;;;;0.30;0.30;;;;;;;16.37;78.28;100812.69;5043339;28;20140;-69
2022/07/17 04:10:25;;;;;;;0.20;0.20;;;;;;;16.51;78.55;100812.31;5043063;28;20022;-68
2022/07/17 04:12:50;;;;;;;0.20;0.20;;;;;;;16.70;78.32;100822.28;5043442;28;20028;-69
2022/07/17 04:15:48;;;;;;;0.20;0.20;;;;;;;16.78;78.15;100822.94;5043242;28;20025;-68
2022/07/17 04:18:01;;;;;;;0.20;0.20;;;;;;;16.76;77.92;100824.75;5043126;28;20021;-69
2022/07/17 04:20:26;;;;;;;0.20;0.20;;;;;;;16.85;77.56;100836.75;5009068;28;20013;-68
2022/07/17 04:22:52;;;;;;;0.20;0.20;;;;;;;16.82;77.43;100827.19;5043270;28;20032;-69
2022/07/17 04:25:17;;;;;;;0.20;0.20;;;;;;;16.88;77.35;100830.56;5043011;28;20112;-67
2022/07/17 04:27:42;;;;;;;0.20;0.20;;;;;;;16.93;76.75;100826.03;5025428;28;20508;-68
2022/07/17 04:30:08;;;;;;;0.20;0.20;;;;;;;16.93;76.83;100826.88;5042994;28;20025;-68
2022/07/17 04:32:33;;;;;;;0.20;0.20;;;;;;;16.98;76.92;100822.38;5043250;28;20026;-68
2022/07/17 04:34:59;;;;;;;0.20;0.20;;;;;;;17.07;76.57;100826.50;5044224;28;20021;-68
2022/07/17 04:37:24;;;;;;;0.30;0.30;;;;;;;17.20;76.31;100829.63;5046880;28;20021;-68
2022/07/17 04:39:49;;;;;;;0.30;0.30;;;;;;;17.36;75.92;100825.72;5046672;28;20119;-68
2022/07/17 04:42:15;;;;;;;0.20;0.20;;;;;;;17.61;75.77;100830.19;5046819;28;20032;-68
2022/07/17 04:44:40;;;;;;;1.27;0.65;;;;;;;17.81;75.85;100829.59;5046782;28;20025;-68
2022/07/17 04:47:05;;;;;;;0.30;0.30;;;;;;;18.34;77.49;100835.75;5046807;28;20568;-68
2022/07/17 04:49:31;;;;;;;0.20;0.20;;;;;;;19.54;78.45;100823.53;5046792;28;20040;-68
2022/07/17 04:51:56;;;;;;;0.20;0.20;;;;;;;20.84;76.27;100823.44;5046668;28;20361;-68
2022/07/17 04:54:21;;;;;;;0.20;0.20;;;;;;;22.05;75.61;100824.00;5046745;28;20041;-68
2022/07/17 04:56:47;;;;;;;0.20;0.20;;;;;;;23.25;71.87;100825.72;5046612;28;20044;-68
2022/07/17 04:59:12;;;;;;;0.20;0.20;;;;;;;24.58;71.14;100827.91;5046739;28;20291;-68
2022/07/17 05:01:37;;;;;;;0.10;0.10;;;;;;;25.77;70.54;100817.88;5046565;28;20477;-69
2022/07/17 05:04:04;;;;;;;0.10;0.10;;;;;;;26.22;65.64;100823.69;5046710;28;20025;-69
2022/07/17 05:06:29;;;;;;;0.10;0.10;;;;;;;26.63;66.21;100820.94;5046561;28;20089;-68
2022/07/17 05:08:55;;;;;;;0.15;0.15;;;;;;;26.42;63.32;100817.97;5046476;28;20029;-68
2022/07/17 05:11:20;;;;;;;0.10;0.10;;;;;;;25.98;61.27;100827.06;5046036;28;20040;-69
2022/07/17 05:13:46;;;;;;;0.10;0.10;;;;;;;25.46;59.79;100829.50;5046373;28;20021;-69
2022/07/17 05:16:11;;;;;;;0.10;0.10;;;;;;;24.66;57.97;100825.66;5046234;28;20107;-68
2022/07/17 05:18:36;;;;;;;0.10;0.10;;;;;;;24.30;58.36;100829.59;5046224;28;20033;-68
2022/07/17 05:21:02;;;;;;;0.10;0.10;;;;;;;23.64;57.67;100825.38;5046132;28;20024;-69
2022/07/17 05:23:27;;;;;;;0.10;0.10;;;;;;;23.03;57.73;100834.81;5028518;28;20052;-69
2022/07/17 05:25:53;;;;;;;0.20;0.20;;;;;;;22.48;58.18;100831.50;5045963;28;20048;-68
2022/07/17 05:28:18;;;;;;;0.10;0.10;;;;;;;22.04;58.08;100831.06;5046019;28;20036;-68
2022/07/17 05:30:43;;;;;;;0.10;0.10;;;;;;;21.63;58.91;100826.88;5045862;28;20056;-69
2022/07/17 05:33:09;;;;;;;0.10;0.10;;;;;;;21.38;58.80;100841.25;5045986;28;20033;-68
2022/07/17 05:35:34;;;;;;;0.20;0.20;;;;;;;21.17;57.70;100832.53;5046031;28;20086;-68
2022/07/17 05:38:00;;;;;;;0.10;0.10;;;;;;;20.97;57.16;100842.25;5045824;28;20048;-69
2022/07/17 05:40:25;;;;;;;0.10;0.10;;;;;;;20.95;57.48;100835.31;5045318;28;20041;-68
2022/07/17 05:42:51;;;;;;;0.10;0.10;;;;;;;20.85;57.81;100838.34;5045858;28;20128;-69
2022/07/17 05:45:16;;;;;;;0.25;0.25;;;;;;;20.75;58.03;100843.16;5045797;28;20465;-68
2022/07/17 05:47:41;;;;;;;0.20;0.20;;;;;;;20.71;58.41;100836.31;5045084;28;20037;-69
2022/07/17 05:50:07;;;;;;;0.20;0.20;;;;;;;20.62;58.22;100837.59;5045581;28;20037;-69
2022/07/17 05:52:32;;;;;;;0.20;0.20;;;;;;;20.58;56.45;100845.69;5045654;28;20037;-69
2022/07/17 05:54:58;;;;;;;0.20;0.20;;;;;;;20.54;56.88;100840.56;5045595;28;20040;-69
2022/07/17 05:57:23;;;;;;;0.20;0.20;;;;;;;20.52;57.11;100841.56;5027545;28;20474;-69
2022/07/17 05:59:48;;;;;;;0.20;0.20;;;;;;;20.54;57.05;100845.81;5027621;28;20021;-69
2022/07/17 06:02:14;;;;;;;0.10;0.10;;;;;;;20.35;57.29;100852.84;5045302;28;20018;-69
2022/07/17 06:04:39;;;;;;;0.20;0.20;;;;;;;20.26;57.16;100857.56;5045443;28;20047;-70
2022/07/17 06:07:04;;;;;;;0.20;0.20;;;;;;;20.08;56.72;100853.06;5045452;28;20036;-69
2022/07/17 06:09:30;;;;;;;0.20;0.20;;;;;;;19.94;57.16;100854.44;5045230;28;20029;-70
2022/07/17 06:11:55;;;;;;;0.20;0.20;;;;;;;19.81;57.35;100865.50;5045067;28;20052;-69
2022/07/17 06:14:20;;;;;;;0.20;0.20;;;;;;;19.87;57.46;100867.00;5045162;28;20021;-69
2022/07/17 06:16:46;;;;;;;0.20;0.20;;;;;;;19.87;57.81;100874.06;5045167;28;20029;-69
2022/07/17 06:19:11;;;;;;;0.20;0.20;;;;;;;20.04;57.25;100874.28;5045171;28;20056;-68
2022/07/17 06:21:37;;;;;;;0.20;0.20;;;;;;;20.34;57.90;100874.81;5044984;28;20017;-69
2022/07/17 06:24:02;;;;;;;0.10;0.10;;;;;;;20.92;57.65;100878.53;5045153;28;20025;-68
2022/07/17 06:26:27;;;;;;;0.20;0.20;;;;;;;21.70;57.94;100879.41;5044770;28;20025;-68
2022/07/17 06:28:53;;;;;;;0.20;0.20;;;;;;;22.90;57.46;100884.09;5044996;28;20051;-68
2022/07/17 06:31:18;;;;;;;0.13;0.13;;;;;;;24.22;56.31;100881.28;5044850;28;20029;-68
2022/07/17 06:33:43;;;;;;;0.10;0.10;;;;;;;25.41;52.11;100882.13;5044849;28;20047;-69
2022/07/17 06:36:09;;;;;;;0.10;0.10;;;;;;;26.20;48.44;100876.13;5044649;28;20021;-68
2022/07/17 06:38:35;;;;;;;0.10;0.10;;;;;;;26.84;48.09;100871.84;5044736;28;20076;-69
2022/07/17 06:41:02;;;;;;;0.10;0.10;;;;;;;27.17;47.87;100880.25;5044239;28;20044;-68
2022/07/17 06:43:27;;;;;;;0.10;0.10;;;;;;;26.92;46.24;100879.28;5044749;28;20353;-69
2022/07/17 06:45:55;;;;;;;0.10;0.10;;;;;;;26.96;46.65;100885.25;5044553;28;20040;-70
2022/07/17 06:48:21;;;;;;;0.20;0.20;;;;;;;26.88;46.49;100887.59;5044495;28;20082;-69
2022/07/17 06:50:47;;;;;;;0.10;0.10;;;;;;;26.81;46.17;100873.84;5044494;28;20049;-68
2022/07/17 06:53:12;;;;;;;0.10;0.10;;;;;;;26.87;44.39;100889.41;5044166;28;20466;-70
2022/07/17 06:55:38;;;;;;;0.10;0.10;;;;;;;26.46;44.44;100891.31;5043760;28;20643;-70
2022/07/17 06:58:03;;;;;;;0.10;0.10;;;;;;;26.21;44.96;100893.84;5043661;28;20372;-69
2022/07/17 07:00:29;;;;;;;0.10;0.10;;;;;;;26.01;44.06;100894.31;5043945;28;20013;-69
2022/07/17 07:02:54;;;;;;;0.57;0.57;;;;;;;25.73;44.53;100900.50;5044054;28;20021;-69
2022/07/17 07:05:20;;;;;;;0.10;0.10;;;;;;;25.45;44.59;100910.19;5044103;28;20021;-69
2022/07/17 07:07:46;;;;;;;0.30;0.30;;;;;;;25.11;44.94;100899.06;5044127;28;20110;-68
2022/07/17 07:10:11;;;;;;;0.10;0.10;;;;;;;24.69;45.43;100897.13;5026098;28;20032;-69
2022/07/17 07:12:37;;;;;;;0.10;0.10;;;;;;;24.41;44.25;100906.72;5026248;28;20025;-69
2022/07/17 07:15:03;;;;;;;0.10;0.10;;;;;;;24.08;43.48;100900.63;5043895;28;20055;-69
2022/07/17 07:17:28;;;;;;;0.17;0.17;;;;;;;24.00;44.25;100911.69;5043714;28;20064;-70
2022/07/17 07:19:53;;;;;;;0.10;0.10;;;;;;;23.99;43.35;100903.81;5042610;28;20021;-69
2022/07/17 07:22:19;;;;;;;0.10;0.10;;;;;;;23.95;43.76;100920.84;5043893;28;20342;-69
2022/07/17 07:24:44;;;;;;;0.10;0.10;;;;;;;23.98;44.10;100910.91;5043853;28;20025;-69
2022/07/17 07:27:09;;;;;;;0.10;0.10;;;;;;;23.80;43.72;100926.09;5043504;28;20492;-70
2022/07/17 07:29:35;;;;;;;0.10;0.10;;;;;;;23.74;44.07;100921.97;5043689;28;20034;-70
2022/07/17 07:32:01;;;;;;;0.10;0.10;;;;;;;23.67;43.66;100917.97;5043496;28;20045;-70
2022/07/17 07:34:27;;;;;;;0.10;0.10;;;;;;;23.46;43.18;100915.56;5043614;28;20051;-70
2022/07/17 07:36:52;;;;;;;0.20;0.20;;;;;;;23.14;43.22;100924.28;5043700;28;20045;-70
2022/07/17 07:39:18;;;;;;;0.10;0.10;;;;;;;23.32;43.40;100913.66;5043617;28;20029;-70
2022/07/17 07:41:44;;;;;;;0.20;0.20;;;;;;;23.27;43.35;100919.16;5043209;28;20124;-70
2022/07/17 07:44:09;;;;;;;0.13;0.13;;;;;;;23.19;42.20;100925.84;5043464;28;20061;-70
2022/07/17 07:46:34;;;;;;;0.20;0.20;;;;;;;22.86;42.61;100919.59;5043715;28;20030;-70
2022/07/17 07:49:00;;;;;;;0.20;0.20;;;;;;;22.92;43.71;100926.34;5043534;28;20040;-70
2022/07/17 07:51:25;;;;;;;0.20;0.20;;;;;;;23.35;43.07;100924.06;5043450;28;20036;-70
2022/07/17 07:53:51;;;;;;;0.20;0.20;;;;;;;24.21;41.63;100926.47;5043408;28;20018;-70
2022/07/17 07:56:16;;;;;;;0.10;0.10;;;;;;;24.99;39.95;100925.44;5043329;28;20032;-70
2022/07/17 07:58:41;;;;;;;0.10;0.10;;;;;;;25.78;39.81;100925.91;5043243;28;20033;-69
2022/07/17 08:01:07;;;;;;;0.10;0.10;;;;;;;26.31;38.69;100928.66;5043179;28;20032;-69
2022/07/17 08:03:32;;;;;;;0.10;0.10;;;;;;;26.40;38.40;100932.53;5043196;28;20018;-69
2022/07/17 08:05:58;;;;;;;0.10;0.10;;;;;;;26.52;38.92;100933.50;5043205;28;20056;-69
2022/07/17 08:08:23;;;;;;;0.10;0.10;;;;;;;26.92;38.10;100939.69;5043286;28;20032;-69
2022/07/17 08:10:48;;;;;;;0.10;0.10;;;;;;;27.52;38.58;100944.44;5045691;28;20031;-68
2022/07/17 08:13:14;;;;;;;0.10;0.10;;;;;;;28.12;38.17;100944.53;5047354;28;20026;-68
2022/07/17 08:15:39;;;;;;;0.10;0.10;;;;;;;28.49;35.71;100943.59;5047239;28;20021;-69
2022/07/17 08:18:04;;;;;;;0.10;0.10;;;;;;;28.95;33.96;100939.22;5047319;28;20052;-69
2022/07/17 08:20:30;;;;;;;0.10;0.10;;;;;;;29.40;32.96;100940.16;5046996;28;20049;-69
2022/07/17 08:22:55;;;;;;;0.10;0.10;;;;;;;29.39;31.54;100943.81;5047149;28;20033;-70
2022/07/17 08:25:20;;;;;;;0.10;0.10;;;;;;;28.87;31.81;100943.44;5047258;28;20021;-69
2022/07/17 08:27:46;;;;;;;0.10;0.10;;;;;;;28.47;32.02;100944.72;5047076;28;20023;-70
2022/07/17 08:30:13;;;;;;;0.10;0.10;;;;;;;27.72;32.78;100953.69;5046748;28;20295;-70
2022/07/17 08:32:39;;;;;;;0.10;0.10;;;;;;;27.13;33.17;100950.69;5047166;28;20030;-69
2022/07/17 08:35:05;;;;;;;0.10;0.10;;;;;;;26.51;33.83;100947.78;5047236;28;20100;-69
2022/07/17 08:37:41;;;;;;;0.10;0.10;;;;;;;26.12;34.56;100955.63;5046924;28;20049;-68
2022/07/17 08:40:07;;;;;;;0.10;0.10;;;;;;;25.66;35.11;100954.13;5046556;28;20057;-68
2022/07/17 08:42:32;;;;;;;0.10;0.10;;;;;;;25.11;35.75;100960.16;5046764;28;20048;-69
2022/07/17 08:44:57;;;;;;;0.10;0.10;;;;;;;24.54;37.09;100961.75;5046826;28;20037;-69
2022/07/17 08:47:23;;;;;;;0.10;0.10;;;;;;;24.20;37.89;100960.09;5046775;28;20473;-69
2022/07/17 08:49:49;;;;;;;0.10;0.10;;;;;;;24.15;38.11;100964.81;5046467;28;20033;-69
2022/07/17 08:52:15;;;;;;;0.10;0.10;;;;;;;23.99;38.48;100968.28;5046687;28;20024;-68
2022/07/17 08:54:41;;;;;;;0.10;0.10;;;;;;;23.77;38.81;100968.69;5046572;28;20036;-69
2022/07/17 08:57:07;;;;;;;0.20;0.20;;;;;;;23.52;39.23;100981.47;5046383;28;20441;-68
2022/07/17 08:59:33;;;;;;;0.10;0.10;;;;;;;23.18;39.30;100977.94;5046616;28;20022;-68
2022/07/17 09:02:03;;;;;;;0.10;0.10;;;;;;;23.03;39.63;100993.69;5046578;28;20100;-69
2022/07/17 09:04:28;;;;;;;0.10;0.10;;;;;;;23.00;38.76;100983.25;5046382;28;20117;-69
2022/07/17 09:07:05;;;;;;;0.10;0.10;;;;;;;22.89;39.20;100994.41;5046460;28;20033;-68
2022/07/17 09:09:33;;;;;;;0.10;0.10;;;;;;;23.02;39.56;100981.38;5046484;28;20040;-69
2022/07/17 09:12:03;;;;;;;0.50;0.50;;;;;;;23.12;39.41;100986.19;5046064;28;20033;-68
2022/07/17 09:14:38;;;;;;;0.17;0.17;;;;;;;23.24;39.71;100985.56;5046311;28;20100;-69
2022/07/17 09:17:05;;;;;;;0.20;0.20;;;;;;;23.29;39.44;100987.97;5046169;28;20059;-68
2022/07/17 09:19:42;;;;;;;0.77;0.77;;;;;;;23.20;39.66;100991.97;5046127;28;20469;-69
2022/07/17 09:22:18;;;;;;;0.20;0.20;;;;;;;23.09;39.93;100981.06;5044974;28;20049;-69
2022/07/17 09:24:53;;;;;;;0.20;0.20;;;;;;;23.21;40.30;100984.88;5028362;28;20025;-69
2022/07/17 09:27:25;;;;;;;0.10;0.10;;;;;;;23.90;39.91;100997.97;5045943;28;20052;-69
2022/07/17 09:30:07;;;;;;;0.17;0.17;;;;;;;25.21;36.97;100992.28;5046035;28;20424;-69
2022/07/17 09:32:36;;;;;;;;;;;;;;;26.14;34.74;100996.28;5046228;28;20039;-69
2022/07/17 09:35:05;;;;;;;0.10;0.10;;;;;;;26.90;34.73;100990.41;5046032;28;19999;-69
2022/07/17 09:37:31;;;;;;;0.10;0.10;;;;;;;27.50;32.10;100991.69;5045908;28;20104;-69
2022/07/17 09:39:57;;;;;;;0.10;0.10;;;;;;;27.60;31.77;100998.06;5045653;28;20424;-69
2022/07/17 09:42:23;;;;;;;2.22;2.08;;;;;;;27.84;31.37;100997.28;5045611;28;20052;-68
2022/07/17 09:45:03;;;;;;;0.10;0.10;;;;;;;28.14;30.26;101009.34;5045519;28;20033;-69
2022/07/17 09:47:31;;;;;;;0.10;0.10;;;;;;;28.20;30.90;100992.88;5027605;28;20028;-68
2022/07/17 09:49:58;;;;;;;0.10;0.10;;;;;;;28.62;31.71;101006.75;5045566;28;20509;-68
2022/07/17 09:52:26;;;;;;;0.10;0.10;;;;;;;28.89;30.55;101001.13;5045415;28;20030;-68
2022/07/17 09:54:56;;;;;;;0.10;0.10;;;;;;;29.17;30.19;101004.34;5045544;28;20029;-68
2022/07/17 09:57:27;;;;;;;0.10;0.10;;;;;;;29.26;29.90;100984.06;5045314;28;20032;-69
2022/07/17 09:59:55;;;;;;;0.10;0.10;;;;;;;29.61;28.97;101000.09;5045536;28;20025;-67
2022/07/17 10:02:21;;;;;;;0.10;0.10;;;;;;;29.95;28.83;101000.03;5045313;28;20025;-68
2022/07/17 10:04:47;;;;;;;0.10;0.10;;;;;;;30.14;28.67;100998.50;5011275;28;20028;-68
2022/07/17 10:07:13;;;;;;;0.10;0.10;;;;;;;29.94;27.45;101011.69;5045340;28;20274;-68
2022/07/17 10:09:39;;;;;;;0.10;0.10;;;;;;;29.91;26.95;100998.56;5045297;28;20025;-69
2022/07/17 10:12:06;;;;;;;0.20;0.20;;;;;;;29.66;26.90;101006.78;5044884;28;20507;-68
2022/07/17 10:14:33;;;;;;;0.10;0.10;;;;;;;29.58;27.02;101003.88;5045310;28;20044;-68
2022/07/17 10:17:14;;;;;;;0.10;0.10;;;;;;;29.28;27.74;101016.03;5044853;28;20084;-68
2022/07/17 10:19:56;;;;;;;0.10;0.10;;;;;;;29.44;26.48;101011.13;5045231;28;20079;-69
2022/07/17 10:22:23;;;;;;;0.10;0.10;;;;;;;29.38;27.32;101008.97;5044988;28;20103;-68
2022/07/17 10:24:53;;;;;;;0.10;0.10;;;;;;;29.23;27.15;101028.88;5044836;28;20029;-68
2022/07/17 10:27:27;;;;;;;0.10;0.10;;;;;;;29.05;28.30;101016.00;5044853;28;20036;-68
2022/07/17 10:30:03;;;;;;;0.10;0.10;;;;;;;29.09;28.22;101022.78;5045026;28;20022;-68
2022/07/17 10:32:29;;;;;;;0.10;0.10;;;;;;;28.80;28.80;101024.03;5044574;28;20034;-69
2022/07/17 10:35:04;;;;;;;0.10;0.10;;;;;;;29.00;29.52;101021.69;5044826;28;20032;-68
2022/07/17 10:37:35;;;;;;;0.10;0.10;;;;;;;29.05;30.02;101021.34;5044607;28;20076;-68
2022/07/17 10:40:12;;;;;;;0.10;0.10;;;;;;;28.94;30.12;101023.00;5044794;28;20025;-69
2022/07/17 10:42:56;;;;;;;0.10;0.10;;;;;;;28.51;30.52;101023.59;5044605;28;20037;-68
2022/07/17 10:45:24;;;;;;;0.10;0.10;;;;;;;28.24;31.14;101027.34;5044694;28;20030;-68
2022/07/17 10:47:56;;;;;;;0.22;0.22;;;;;;;28.44;30.93;101025.88;5044521;28;20109;-68
2022/07/17 10:50:43;;;;;;;0.10;0.10;;;;;;;28.43;30.78;101029.53;5044447;28;20017;-69
2022/07/17 10:53:31;;;;;;;0.10;0.10;;;;;;;27.95;31.55;101032.06;5043795;28;20045;-69
2022/07/17 10:56:04;;;;;;;0.10;0.10;;;;;;;27.14;32.54;101035.00;5043990;28;20547;-69
2022/07/17 10:58:41;;;;;;;0.10;0.10;;;;;;;27.08;33.14;101038.09;5044441;28;20105;-69
2022/07/17 11:01:14;;;;;;;0.10;0.10;;;;;;;26.50;33.52;101044.56;5026536;28;20032;-68
2022/07/17 11:03:54;;;;;;;0.10;0.10;;;;;;;26.57;33.84;101045.00;5044266;28;20036;-68
2022/07/17 11:06:22;;;;;;;0.10;0.10;;;;;;;26.03;33.98;101033.38;5044225;28;20075;-68
2022/07/17 11:08:52;;;;;;;0.10;0.10;;;;;;;25.39;35.22;101048.78;5044231;28;20060;-67
2022/07/17 11:11:22;;;;;;;0.10;0.10;;;;;;;24.79;35.71;101061.16;5044179;28;20029;-67
2022/07/17 11:13:47;;;;;;;0.10;0.10;;;;;;;24.13;36.47;101055.06;5044111;28;20031;-68
2022/07/17 11:16:23;;;;;;;0.10;0.10;;;;;;;23.71;37.48;101054.66;5043996;28;20065;-68
2022/07/17 11:18:50;;;;;;;0.10;0.10;;;;;;;23.50;37.62;101056.66;5043911;28;20187;-69
2022/07/17 11:21:15;;;;;;;0.20;0.20;;;;;;;23.23;38.22;101067.72;5043850;28;20100;-67
2022/07/17 11:23:53;;;;;;;0.10;0.10;;;;;;;23.00;38.65;101067.97;5043888;28;20420;-67